createdAt,value
2017-07-15T00:01:56.156Z,93.90
2017-07-15T00:04:23.685Z,94.10
2017-07-15T00:06:51.191Z,94.10
2017-07-15T00:09:18.707Z,94.00
2017-07-15T00:11:46.213Z,94.20
2017-07-15T00:14:13.740Z,94.40
2017-07-15T00:16:41.243Z,94.40
2017-07-15T00:19:09.541Z,94.60
2017-07-15T00:21:37.042Z,94.60
2017-07-15T00:24:04.549Z,94.60
2017-07-15T00:26:32.841Z,94.90
2017-07-15T00:29:00.359Z,94.90
2017-07-15T00:31:27.884Z,95.00
2017-07-15T00:33:55.402Z,95.10
2017-07-15T00:36:22.935Z,95.20
2017-07-15T00:38:50.441Z,95.30
2017-07-15T00:41:17.956Z,95.40
2017-07-15T00:43:46.247Z,95.90
2017-07-15T00:46:14.520Z,95.70
2017-07-15T00:48:42.814Z,95.60
2017-07-15T00:51:10.324Z,95.60
2017-07-15T00:53:37.847Z,95.30
2017-07-15T00:56:05.351Z,95.20
2017-07-15T00:58:32.891Z,95.40
2017-07-15T01:01:00.400Z,95.40
2017-07-15T01:03:27.907Z,95.40
2017-07-15T01:05:55.438Z,95.40
2017-07-15T01:08:22.952Z,95.20
2017-07-15T01:10:51.244Z,94.80
2017-07-15T01:13:18.755Z,95.00
2017-07-15T01:15:46.289Z,95.00
2017-07-15T01:18:13.791Z,95.10
2017-07-15T01:20:41.296Z,95.00
2017-07-15T01:23:08.823Z,94.90
2017-07-15T01:25:37.108Z,95.20
2017-07-15T01:28:04.635Z,95.50
2017-07-15T01:30:32.147Z,95.00
2017-07-15T01:32:59.668Z,94.90
2017-07-15T01:35:27.171Z,94.90
2017-07-15T01:37:54.708Z,94.90
2017-07-15T01:40:22.216Z,95.00
2017-07-15T01:42:49.724Z,94.80
2017-07-15T01:45:17.257Z,95.00
2017-07-15T01:47:44.763Z,94.90
2017-07-15T01:50:12.284Z,94.70
2017-07-15T01:52:40.565Z,94.70
2017-07-15T01:55:08.864Z,94.70
2017-07-15T01:57:36.372Z,94.70
2017-07-15T02:00:03.875Z,94.80
2017-07-15T02:02:31.403Z,94.60
2017-07-15T02:04:59.671Z,94.40
2017-07-15T02:07:27.197Z,94.20
2017-07-15T02:09:54.709Z,93.90
2017-07-15T02:12:22.264Z,93.90
2017-07-15T02:14:50.527Z,94.00
2017-07-15T02:17:18.828Z,94.00
2017-07-15T02:19:46.339Z,93.80
2017-07-15T02:22:13.844Z,94.00
2017-07-15T02:24:41.374Z,94.00
2017-07-15T02:27:08.881Z,94.00
2017-07-15T02:29:36.410Z,94.00
2017-07-15T02:32:04.683Z,94.50
2017-07-15T02:34:32.986Z,94.20
2017-07-15T02:37:00.492Z,94.20
2017-07-15T02:39:28.003Z,94.70
2017-07-15T02:41:55.533Z,94.20
2017-07-15T02:44:23.808Z,94.10
2017-07-15T02:46:52.104Z,94.20
2017-07-15T02:49:19.612Z,94.20
2017-07-15T02:51:47.136Z,94.20
2017-07-15T02:54:14.644Z,93.90
2017-07-15T02:56:42.174Z,93.80
2017-07-15T02:59:09.682Z,93.90
2017-07-15T03:01:37.955Z,93.00
2017-07-15T03:04:05.474Z,93.00
2017-07-15T03:06:32.995Z,93.10
2017-07-15T03:09:00.524Z,93.50
2017-07-15T03:11:28.802Z,93.30
2017-07-15T03:13:56.340Z,93.30
2017-07-15T03:16:23.852Z,93.70
2017-07-15T03:18:51.379Z,94.00
2017-07-15T03:21:18.892Z,94.40
2017-07-15T03:23:46.396Z,94.00
2017-07-15T03:26:13.923Z,94.10
2017-07-15T03:28:41.431Z,94.30
2017-07-15T03:31:08.953Z,94.20
2017-07-15T03:33:36.466Z,94.10
2017-07-15T03:36:04.008Z,94.20
2017-07-15T03:38:31.528Z,94.00
2017-07-15T03:40:59.060Z,94.10
2017-07-15T03:43:26.564Z,94.50
2017-07-15T03:45:54.850Z,94.60
2017-07-15T03:48:22.363Z,94.60
2017-07-15T03:50:49.896Z,94.30
2017-07-15T03:53:17.404Z,94.20
2017-07-15T03:55:45.674Z,94.60
2017-07-15T03:58:13.195Z,94.40
2017-07-15T04:00:40.700Z,93.80
2017-07-15T04:03:08.991Z,93.70
2017-07-15T04:05:37.264Z,93.60
2017-07-15T04:08:05.555Z,93.70
2017-07-15T04:10:33.050Z,93.70
2017-07-15T04:13:00.551Z,93.90
2017-07-15T04:15:28.843Z,94.70
2017-07-15T04:17:56.343Z,94.70
2017-07-15T04:20:23.863Z,94.60
2017-07-15T04:22:51.371Z,94.70
2017-07-15T04:25:18.898Z,94.80
2017-07-15T04:27:46.398Z,94.90
2017-07-15T04:30:13.899Z,95.20
2017-07-15T04:32:41.416Z,95.10
2017-07-15T04:35:08.920Z,95.20
2017-07-15T04:37:36.440Z,94.80
2017-07-15T04:40:03.940Z,94.80
2017-07-15T04:42:31.485Z,94.90
2017-07-15T04:44:58.995Z,95.00
2017-07-15T04:47:26.503Z,94.90
2017-07-15T04:49:54.023Z,94.90
2017-07-15T04:52:21.539Z,95.10
2017-07-15T04:54:49.060Z,94.70
2017-07-15T04:57:17.341Z,94.80
2017-07-15T04:59:45.639Z,95.00
2017-07-15T05:02:13.209Z,94.90
2017-07-15T05:04:40.715Z,94.40
2017-07-15T05:07:08.234Z,94.90
2017-07-15T05:09:35.740Z,94.50
2017-07-15T05:12:04.027Z,94.30
2017-07-15T05:14:32.296Z,94.40
2017-07-15T05:17:00.588Z,94.00
2017-07-15T05:19:28.091Z,94.00
2017-07-15T05:21:55.591Z,93.70
2017-07-15T05:24:23.875Z,93.80
2017-07-15T05:26:51.379Z,93.80
2017-07-15T05:29:18.904Z,93.80
2017-07-15T05:31:46.414Z,93.20
2017-07-15T05:34:13.947Z,92.00
2017-07-15T05:36:41.452Z,92.40
2017-07-15T05:39:09.728Z,92.10
2017-07-15T05:41:38.015Z,92.50
2017-07-15T05:44:06.292Z,92.20
2017-07-15T05:46:33.820Z,92.20
2017-07-15T05:49:01.319Z,92.50
2017-07-15T05:51:28.839Z,92.60
2017-07-15T05:53:56.340Z,92.60
2017-07-15T05:56:23.863Z,92.80
2017-07-15T05:58:51.366Z,92.50
2017-07-15T06:01:18.871Z,92.80
2017-07-15T06:03:46.392Z,92.40
2017-07-15T06:06:13.901Z,91.80
2017-07-15T06:08:42.191Z,92.10
2017-07-15T06:11:10.540Z,92.10
2017-07-15T06:13:38.073Z,92.00
2017-07-15T06:16:05.588Z,92.40
2017-07-15T06:18:33.095Z,92.20
2017-07-15T06:21:00.619Z,91.40
2017-07-15T06:23:28.119Z,90.90
2017-07-15T06:25:55.649Z,91.90
2017-07-15T06:28:23.158Z,91.70
2017-07-15T06:30:50.683Z,91.30
2017-07-15T06:33:18.184Z,91.40
2017-07-15T06:35:46.456Z,92.20
2017-07-15T06:38:14.747Z,90.70
2017-07-15T06:40:43.019Z,91.00
2017-07-15T06:43:11.307Z,90.00
2017-07-15T06:45:38.828Z,90.00
2017-07-15T06:48:06.364Z,91.00
2017-07-15T06:50:33.868Z,91.40
2017-07-15T06:53:01.380Z,90.80
2017-07-15T06:55:28.908Z,89.80
2017-07-15T06:57:56.413Z,90.20
2017-07-15T07:00:23.939Z,90.00
2017-07-15T07:02:51.446Z,90.10
2017-07-15T07:05:19.739Z,88.70
2017-07-15T07:07:47.261Z,88.60
2017-07-15T07:10:14.787Z,88.70
2017-07-15T07:12:42.299Z,88.20
2017-07-15T07:15:10.987Z,89.40
2017-07-15T07:17:38.708Z,88.50
2017-07-15T07:20:06.232Z,87.60
2017-07-15T07:22:33.755Z,88.40
2017-07-15T07:25:01.264Z,87.40
2017-07-15T07:27:28.787Z,87.20
2017-07-15T07:29:57.069Z,87.90
2017-07-15T07:32:24.606Z,87.90
2017-07-15T07:34:52.111Z,88.90
2017-07-15T07:37:19.624Z,88.50
2017-07-15T07:39:47.155Z,86.50
2017-07-15T07:42:14.664Z,88.10
2017-07-15T07:44:42.187Z,86.60
2017-07-15T07:47:09.695Z,82.80
2017-07-15T07:49:37.218Z,86.00
2017-07-15T07:52:04.726Z,80.90
2017-07-15T07:54:32.259Z,80.80
2017-07-15T07:56:59.767Z,80.10
2017-07-15T07:59:27.267Z,79.60
2017-07-15T08:01:55.557Z,79.90
2017-07-15T08:04:23.072Z,79.90
2017-07-15T08:06:50.588Z,82.60
2017-07-15T08:09:18.104Z,83.90
2017-07-15T08:11:45.633Z,83.50
2017-07-15T08:14:13.136Z,81.70
2017-07-15T08:16:40.648Z,81.40
2017-07-15T08:19:08.176Z,81.90
2017-07-15T08:21:35.691Z,79.40
2017-07-15T08:24:03.211Z,77.00
2017-07-15T08:26:30.710Z,75.30
2017-07-15T08:28:59.002Z,76.50
2017-07-15T08:31:27.270Z,69.60
2017-07-15T08:33:54.794Z,69.50
2017-07-15T08:36:22.320Z,71.40
2017-07-15T08:38:49.828Z,73.90
2017-07-15T08:41:17.351Z,71.50
2017-07-15T08:43:44.852Z,72.60
2017-07-15T08:46:12.371Z,71.70
2017-07-15T08:48:39.867Z,72.30
2017-07-15T08:51:07.392Z,73.50
2017-07-15T08:53:34.894Z,71.50
2017-07-15T08:56:02.400Z,71.20
2017-07-15T08:58:29.914Z,71.00
2017-07-15T09:00:57.428Z,70.10
2017-07-15T09:03:24.965Z,69.20
2017-07-15T09:05:52.468Z,71.10
2017-07-15T09:08:19.984Z,70.80
2017-07-15T09:10:47.488Z,70.10
2017-07-15T09:13:15.020Z,73.90
2017-07-15T09:15:42.523Z,72.30
2017-07-15T09:18:10.024Z,71.30
2017-07-15T09:20:37.538Z,67.10
2017-07-15T09:23:05.042Z,65.00
2017-07-15T09:25:32.565Z,64.00
2017-07-15T09:28:00.079Z,64.50
2017-07-15T09:30:27.615Z,66.70
2017-07-15T09:32:55.133Z,67.00
2017-07-15T09:35:22.645Z,66.90
2017-07-15T09:37:50.164Z,69.20
2017-07-15T09:40:17.669Z,69.50
2017-07-15T09:42:45.187Z,72.00
2017-07-15T09:45:12.691Z,71.30
2017-07-15T09:47:40.196Z,71.90
2017-07-15T09:50:07.717Z,71.70
2017-07-15T09:52:35.228Z,69.60
2017-07-15T09:55:02.760Z,70.50
2017-07-15T09:57:30.260Z,70.00
2017-07-15T09:59:57.768Z,67.90
2017-07-15T10:02:25.295Z,70.20
2017-07-15T10:04:52.807Z,70.30
2017-07-15T10:07:20.334Z,70.60
2017-07-15T10:09:48.607Z,70.90
2017-07-15T10:12:16.874Z,72.50
2017-07-15T10:14:44.396Z,72.10
2017-07-15T10:17:11.897Z,72.50
2017-07-15T10:19:39.453Z,71.40
2017-07-15T10:22:06.959Z,68.00
2017-07-15T10:24:34.459Z,71.80
2017-07-15T10:27:01.970Z,67.80
2017-07-15T10:29:29.475Z,67.40
2017-07-15T10:31:56.997Z,65.60
2017-07-15T10:34:24.501Z,64.90
2017-07-15T10:36:52.804Z,60.80
2017-07-15T10:39:20.312Z,60.70
2017-07-15T10:41:47.820Z,62.50
2017-07-15T10:44:15.363Z,65.60
2017-07-15T10:46:43.641Z,61.90
2017-07-15T10:49:11.167Z,62.00
2017-07-15T10:51:38.668Z,64.40
2017-07-15T10:54:06.191Z,64.20
2017-07-15T10:56:33.690Z,63.40
2017-07-15T10:59:01.207Z,59.90
2017-07-15T11:01:28.711Z,60.60
2017-07-15T11:03:56.217Z,61.30
2017-07-15T11:06:23.731Z,62.70
2017-07-15T11:08:51.240Z,64.30
2017-07-15T11:11:18.760Z,64.00
2017-07-15T11:13:46.272Z,63.40
2017-07-15T11:16:14.583Z,63.90
2017-07-15T11:18:42.088Z,63.10
2017-07-15T11:21:09.600Z,62.90
2017-07-15T11:23:37.123Z,60.50
2017-07-15T11:26:05.394Z,61.80
2017-07-15T11:28:32.917Z,62.20
2017-07-15T11:31:00.424Z,60.70
2017-07-15T11:33:27.956Z,58.20
2017-07-15T11:35:55.459Z,58.00
2017-07-15T11:38:22.959Z,58.80
2017-07-15T11:40:50.480Z,60.80
2017-07-15T11:43:17.992Z,59.00
2017-07-15T11:45:45.508Z,59.40
2017-07-15T11:48:13.011Z,59.70
2017-07-15T11:50:40.528Z,56.00
2017-07-15T11:53:08.028Z,57.30
2017-07-15T11:55:35.555Z,55.60
2017-07-15T11:58:03.052Z,56.00
2017-07-15T12:00:30.560Z,56.50
2017-07-15T12:02:58.080Z,55.80
2017-07-15T12:05:26.351Z,55.60
2017-07-15T12:07:54.642Z,57.30
2017-07-15T12:10:22.153Z,57.20
2017-07-15T12:12:49.675Z,54.80
2017-07-15T12:15:17.183Z,56.90
2017-07-15T12:17:44.717Z,56.10
2017-07-15T12:20:12.219Z,57.70
2017-07-15T12:22:39.727Z,57.00
2017-07-15T12:25:07.244Z,56.60
2017-07-15T12:27:34.747Z,56.40
2017-07-15T12:30:02.648Z,56.00
2017-07-15T12:32:30.161Z,55.50
2017-07-15T12:34:57.692Z,56.20
2017-07-15T12:37:25.195Z,56.40
2017-07-15T12:39:52.695Z,56.80
2017-07-15T12:42:20.223Z,56.30
2017-07-15T12:44:47.724Z,55.00
2017-07-15T12:47:15.256Z,55.70
2017-07-15T12:49:42.755Z,53.80
2017-07-15T12:52:10.288Z,55.10
2017-07-15T12:54:37.795Z,56.10
2017-07-15T12:57:05.307Z,55.10
2017-07-15T12:59:32.811Z,52.70
2017-07-15T13:02:00.335Z,55.00
2017-07-15T13:04:27.832Z,54.40
2017-07-15T13:06:55.343Z,54.70
2017-07-15T13:09:23.636Z,53.70
2017-07-15T13:11:51.140Z,53.80
2017-07-15T13:14:18.655Z,53.10
2017-07-15T13:16:46.160Z,56.20
2017-07-15T13:19:13.693Z,55.70
2017-07-15T13:21:41.203Z,53.50
2017-07-15T13:24:08.707Z,53.70
2017-07-15T13:26:36.223Z,53.90
2017-07-15T13:29:03.731Z,55.10
2017-07-15T13:31:31.251Z,54.80
2017-07-15T13:33:58.755Z,57.00
2017-07-15T13:36:26.279Z,55.30
2017-07-15T13:38:53.783Z,55.70
2017-07-15T13:41:21.316Z,53.30
2017-07-15T13:43:48.821Z,51.60
2017-07-15T13:46:17.087Z,52.80
2017-07-15T13:48:44.605Z,53.20
2017-07-15T13:51:12.111Z,52.00
2017-07-15T13:53:39.627Z,51.00
2017-07-15T13:56:07.127Z,53.60
2017-07-15T13:58:35.424Z,50.80
2017-07-15T14:01:03.686Z,48.50
2017-07-15T14:03:31.947Z,51.20
2017-07-15T14:05:59.464Z,51.20
2017-07-15T14:08:26.963Z,51.70
2017-07-15T14:10:54.488Z,51.80
2017-07-15T14:13:21.991Z,52.70
2017-07-15T14:15:49.525Z,52.20
2017-07-15T14:18:17.027Z,52.30
2017-07-15T14:20:44.533Z,52.20
2017-07-15T14:23:12.054Z,50.30
2017-07-15T14:25:39.557Z,51.40
2017-07-15T14:28:07.074Z,50.40
2017-07-15T14:30:34.583Z,49.50
2017-07-15T14:33:02.103Z,51.20
2017-07-15T14:35:29.604Z,48.80
2017-07-15T14:37:57.132Z,47.70
2017-07-15T14:40:24.635Z,50.40
2017-07-15T14:42:52.136Z,50.60
2017-07-15T14:45:19.657Z,50.80
2017-07-15T14:47:47.924Z,50.30
2017-07-15T14:50:15.443Z,50.30
2017-07-15T14:52:42.945Z,52.30
2017-07-15T14:55:10.479Z,50.40
2017-07-15T14:57:37.983Z,50.40
2017-07-15T15:00:05.488Z,49.30
2017-07-15T15:02:33.015Z,49.60
2017-07-15T15:05:00.529Z,48.80
2017-07-15T15:07:28.811Z,47.60
2017-07-15T15:09:57.088Z,48.50
2017-07-15T15:12:24.619Z,48.40
2017-07-15T15:14:52.127Z,49.90
2017-07-15T15:17:19.818Z,51.80
2017-07-15T15:19:47.329Z,51.10
2017-07-15T15:22:14.840Z,51.10
2017-07-15T15:24:42.356Z,51.20
2017-07-15T15:27:09.856Z,52.00
2017-07-15T15:29:37.371Z,51.80
2017-07-15T15:32:04.875Z,51.90
2017-07-15T15:34:32.396Z,53.00
2017-07-15T15:36:59.907Z,52.90
2017-07-15T15:39:27.435Z,52.80
2017-07-15T15:41:54.940Z,51.50
2017-07-15T15:44:23.207Z,52.00
2017-07-15T15:46:50.723Z,51.50
2017-07-15T15:49:18.639Z,51.40
2017-07-15T15:51:46.160Z,49.80
2017-07-15T15:54:13.671Z,50.60
2017-07-15T15:56:41.200Z,51.80
2017-07-15T15:59:08.699Z,52.80
2017-07-15T16:01:36.210Z,51.10
2017-07-15T16:04:03.723Z,50.80
2017-07-15T16:06:31.235Z,51.00
2017-07-15T16:08:58.753Z,51.80
2017-07-15T16:11:26.287Z,50.70
2017-07-15T16:13:53.821Z,51.40
2017-07-15T16:16:22.098Z,48.30
2017-07-15T16:18:49.600Z,48.20
2017-07-15T16:21:17.123Z,49.90
2017-07-15T16:23:44.623Z,51.30
2017-07-15T16:26:12.139Z,52.70
2017-07-15T16:28:39.648Z,51.00
2017-07-15T16:31:07.197Z,49.10
2017-07-15T16:33:34.706Z,49.00
2017-07-15T16:36:02.207Z,49.10
2017-07-15T16:38:29.724Z,47.60
2017-07-15T16:40:57.240Z,49.70
2017-07-15T16:43:24.764Z,48.70
2017-07-15T16:45:52.271Z,47.70
2017-07-15T16:48:19.797Z,48.40
2017-07-15T16:50:47.303Z,48.70
2017-07-15T16:53:14.804Z,49.90
2017-07-15T16:55:42.328Z,47.20
2017-07-15T16:58:10.600Z,48.60
2017-07-15T17:00:38.127Z,48.50
2017-07-15T17:03:05.631Z,49.90
2017-07-15T17:05:33.164Z,50.10
2017-07-15T17:08:00.662Z,49.40
2017-07-15T17:10:28.163Z,50.20
2017-07-15T17:12:55.680Z,50.50
2017-07-15T17:15:23.188Z,48.80
2017-07-15T17:17:50.716Z,50.20
2017-07-15T17:20:18.219Z,51.10
2017-07-15T17:22:45.723Z,51.00
2017-07-15T17:25:13.252Z,53.50
2017-07-15T17:27:41.527Z,53.90
2017-07-15T17:30:09.815Z,54.30
2017-07-15T17:32:37.319Z,54.30
2017-07-15T17:35:04.823Z,53.50
2017-07-15T17:37:32.346Z,55.00
2017-07-15T17:40:00.249Z,55.10
2017-07-15T17:42:27.795Z,55.60
2017-07-15T17:44:55.301Z,55.20
2017-07-15T17:47:22.804Z,55.70
2017-07-15T17:49:50.328Z,56.40
2017-07-15T17:52:17.835Z,55.80
2017-07-15T17:54:46.127Z,56.00
2017-07-15T17:57:14.398Z,56.20
2017-07-15T17:59:41.923Z,56.20
2017-07-15T18:02:09.445Z,56.40
2017-07-15T18:04:36.959Z,56.70
2017-07-15T18:07:05.253Z,57.00
2017-07-15T18:09:33.518Z,56.60
2017-07-15T18:12:01.811Z,57.30
2017-07-15T18:14:29.321Z,57.20
2017-07-15T18:16:56.826Z,58.20
2017-07-15T18:19:24.343Z,58.00
2017-07-15T18:21:51.847Z,57.20
2017-07-15T18:24:19.375Z,57.70
2017-07-15T18:26:46.871Z,58.70
2017-07-15T18:29:14.371Z,60.50
2017-07-15T18:31:41.903Z,60.00
2017-07-15T18:34:09.411Z,62.30
2017-07-15T18:36:37.705Z,65.00
2017-07-15T18:39:05.215Z,64.60
2017-07-15T18:41:32.723Z,65.90
2017-07-15T18:44:00.251Z,68.90
2017-07-15T18:46:27.751Z,69.00
2017-07-15T18:48:55.264Z,68.90
2017-07-15T18:51:22.767Z,71.70
2017-07-15T18:53:50.284Z,72.20
2017-07-15T18:56:17.791Z,72.10
2017-07-15T18:58:45.320Z,72.00
2017-07-15T19:01:13.592Z,74.60
2017-07-15T19:03:41.859Z,74.80
2017-07-15T19:06:09.375Z,74.80
2017-07-15T19:08:36.880Z,75.00
2017-07-15T19:11:05.164Z,73.70
2017-07-15T19:13:32.680Z,73.20
2017-07-15T19:16:00.215Z,73.50
2017-07-15T19:18:27.719Z,73.20
2017-07-15T19:20:55.227Z,76.00
2017-07-15T19:23:22.747Z,76.30
2017-07-15T19:25:51.021Z,76.50
2017-07-15T19:28:19.308Z,76.20
2017-07-15T19:30:47.583Z,76.80
2017-07-15T19:33:15.866Z,77.00
2017-07-15T19:35:44.136Z,77.00
2017-07-15T19:38:12.431Z,78.00
2017-07-15T19:40:39.933Z,77.90
2017-07-15T19:43:07.437Z,78.10
2017-07-15T19:45:34.959Z,79.10
2017-07-15T19:48:02.462Z,79.90
2017-07-15T19:50:29.983Z,79.20
2017-07-15T19:52:57.484Z,78.00
2017-07-15T19:55:25.009Z,77.70
2017-07-15T19:57:53.284Z,77.00
2017-07-15T20:00:21.575Z,75.40
2017-07-15T20:02:49.847Z,74.30
2017-07-15T20:05:18.115Z,73.70
2017-07-15T20:07:46.395Z,74.60
2017-07-15T20:10:14.663Z,74.00
2017-07-15T20:12:42.179Z,74.00
2017-07-15T20:15:09.684Z,74.00
2017-07-15T20:17:37.976Z,77.30
2017-07-15T20:20:05.484Z,77.30
2017-07-15T20:22:33.014Z,77.30
2017-07-15T20:25:00.833Z,79.10
2017-07-15T20:27:28.336Z,78.20
2017-07-15T20:29:55.864Z,80.80
2017-07-15T20:32:24.128Z,81.00
2017-07-15T20:34:52.416Z,80.20
2017-07-15T20:37:20.684Z,77.20
2017-07-15T20:39:48.987Z,76.80
2017-07-15T20:42:16.915Z,76.80
2017-07-15T20:44:44.433Z,78.10
2017-07-15T20:47:11.952Z,79.30
2017-07-15T20:49:40.228Z,81.80
2017-07-15T20:52:13.440Z,81.70
2017-07-15T20:54:40.943Z,81.70
2017-07-15T20:57:08.473Z,81.90
2017-07-15T20:59:35.975Z,82.10
2017-07-15T21:02:03.505Z,81.80
2017-07-15T21:04:31.011Z,82.30
2017-07-15T21:06:59.283Z,82.00
2017-07-15T21:09:26.807Z,82.00
2017-07-15T21:11:54.308Z,82.30
2017-07-15T21:14:21.831Z,82.60
2017-07-15T21:16:49.331Z,82.00
2017-07-15T21:19:16.864Z,81.80
2017-07-15T21:21:44.372Z,81.10
2017-07-15T21:24:11.903Z,81.10
2017-07-15T21:26:39.408Z,82.10
2017-07-15T21:29:06.920Z,82.00
2017-07-15T21:31:34.439Z,82.70
2017-07-15T21:34:01.938Z,83.00
2017-07-15T21:36:30.223Z,83.80
2017-07-15T21:38:57.719Z,83.80
2017-07-15T21:41:25.236Z,84.10
2017-07-15T21:43:52.740Z,83.90
2017-07-15T21:46:20.255Z,83.10
2017-07-15T21:48:47.756Z,84.00
2017-07-15T21:51:15.279Z,85.80
2017-07-15T21:53:42.783Z,86.70
2017-07-15T21:56:10.284Z,87.20
2017-07-15T21:58:37.805Z,86.50
2017-07-15T22:01:05.311Z,84.20
2017-07-15T22:03:32.831Z,83.80
2017-07-15T22:06:01.100Z,83.20
2017-07-15T22:08:28.615Z,83.20
2017-07-15T22:10:56.132Z,83.90
2017-07-15T22:13:23.657Z,85.40
2017-07-15T22:15:51.159Z,86.80
2017-07-15T22:18:19.436Z,86.20
2017-07-15T22:20:46.963Z,86.10
2017-07-15T22:23:14.466Z,86.60
2017-07-15T22:25:42.002Z,85.60
2017-07-15T22:28:10.267Z,83.60
2017-07-15T22:30:37.792Z,83.70
2017-07-15T22:33:05.291Z,83.80
2017-07-15T22:35:32.819Z,84.80
2017-07-15T22:38:00.318Z,84.60
2017-07-15T22:40:27.824Z,84.30
2017-07-15T22:42:55.343Z,84.20
2017-07-15T22:45:22.852Z,84.70
2017-07-15T22:47:50.367Z,85.30
2017-07-15T22:50:17.870Z,85.20
2017-07-15T22:52:45.413Z,84.90
2017-07-15T22:55:12.919Z,85.20
2017-07-15T22:57:41.226Z,86.10
2017-07-15T23:00:08.729Z,86.10
2017-07-15T23:02:36.235Z,86.00
2017-07-15T23:05:03.758Z,85.00
2017-07-15T23:07:31.259Z,84.30
2017-07-15T23:09:58.775Z,84.60
2017-07-15T23:12:27.051Z,85.00
2017-07-15T23:14:54.575Z,85.00
2017-07-15T23:17:22.080Z,87.60
2017-07-15T23:19:50.380Z,88.50
2017-07-15T23:22:17.887Z,88.50
2017-07-15T23:24:45.398Z,88.50
2017-07-15T23:27:12.928Z,88.40
2017-07-15T23:29:41.196Z,85.30
2017-07-15T23:32:09.493Z,86.10
2017-07-15T23:34:36.996Z,86.00
2017-07-15T23:37:04.516Z,86.70
2017-07-15T23:39:32.027Z,86.60
2017-07-15T23:41:59.548Z,85.70
2017-07-15T23:44:27.057Z,86.80
2017-07-15T23:46:54.591Z,86.50
2017-07-15T23:49:22.100Z,86.50
2017-07-15T23:51:49.605Z,86.30
2017-07-15T23:54:17.125Z,86.30
2017-07-15T23:56:44.630Z,86.40
2017-07-15T23:59:12.143Z,86.50
